WZZ5PK EPKT-ESSA
Flight info
| Callsign | WZZ5PK |
|---|---|
| Flight time | N/A |
| Altitude | 36000 |
| Route | NAVUR N744 OVBOR N133 PENOR DCT ARMOD/N0453F370 Z228 NILUG |
| Aircraft | A21N/M-SDE3FGHIRWY/LB1 |
Departure
| Time | 2026-05-04 19:02 |
|---|---|
| Airport | Katowice Wojciech Korfanty International Airport (EPKT) |
Arrival
| Time | N/A |
|---|---|
| Airport | Stockholm-Arlanda Airport (ESSA) |
| Time | Latitude | Longitude | Altitude | Speed | Heading |
|---|---|---|---|---|---|
| 2026-05-04 18:41 | 50.47148 | 19.08692 | 987 ft | 0 kts | 180° |
| 2026-05-04 18:54 | 50.47150 | 19.08692 | 987 ft | 1 kts | 180° |
| 2026-05-04 18:54 | 50.47165 | 19.08692 | 987 ft | 2 kts | 180° |
| 2026-05-04 18:54 | 50.47181 | 19.08692 | 986 ft | 2 kts | 180° |
| 2026-05-04 18:55 | 50.47197 | 19.08692 | 987 ft | 2 kts | 180° |
| 2026-05-04 18:55 | 50.47221 | 19.08690 | 986 ft | 2 kts | 150° |
| 2026-05-04 18:55 | 50.47232 | 19.08672 | 986 ft | 2 kts | 111° |
| 2026-05-04 18:56 | 50.47234 | 19.08659 | 986 ft | 1 kts | 90° |
| 2026-05-04 18:56 | 50.47234 | 19.08648 | 986 ft | 0 kts | 89° |
| 2026-05-04 18:57 | 50.47234 | 19.08649 | 986 ft | 0 kts | 89° |
| 2026-05-04 18:58 | 50.47234 | 19.08681 | 986 ft | 6 kts | 89° |
| 2026-05-04 18:58 | 50.47234 | 19.08781 | 988 ft | 12 kts | 90° |
| 2026-05-04 18:58 | 50.47233 | 19.08945 | 990 ft | 14 kts | 90° |
| 2026-05-04 18:58 | 50.47232 | 19.09091 | 993 ft | 12 kts | 91° |
| 2026-05-04 18:59 | 50.47231 | 19.09236 | 993 ft | 15 kts | 91° |
| 2026-05-04 18:59 | 50.47231 | 19.09414 | 996 ft | 17 kts | 90° |
| 2026-05-04 18:59 | 50.47230 | 19.09608 | 1000 ft | 18 kts | 90° |
| 2026-05-04 18:59 | 50.47230 | 19.09808 | 1005 ft | 17 kts | 90° |
| 2026-05-04 19:00 | 50.47235 | 19.09979 | 1010 ft | 14 kts | 81° |
| 2026-05-04 19:00 | 50.47277 | 19.10107 | 1012 ft | 14 kts | 54° |
| 2026-05-04 19:00 | 50.47347 | 19.10248 | 1011 ft | 18 kts | 52° |
| 2026-05-04 19:00 | 50.47438 | 19.10420 | 1010 ft | 20 kts | 36° |
| 2026-05-04 19:01 | 50.47562 | 19.10439 | 1007 ft | 15 kts | 340° |
| 2026-05-04 19:01 | 50.47592 | 19.10331 | 1007 ft | 10 kts | 271° |
| 2026-05-04 19:01 | 50.47592 | 19.10309 | 1006 ft | 0 kts | 270° |
| 2026-05-04 19:01 | 50.47592 | 19.10308 | 1006 ft | 0 kts | 270° |
| 2026-05-04 19:02 | 50.47592 | 19.10161 | 1003 ft | 49 kts | 270° |
| 2026-05-04 19:02 | 50.47595 | 19.09140 | 985 ft | 133 kts | 269° |
| 2026-05-04 19:02 | 50.47595 | 19.07371 | 1152 ft | 181 kts | 268° |
| 2026-05-04 19:02 | 50.47612 | 19.05300 | 1740 ft | 202 kts | 267° |
| 2026-05-04 19:03 | 50.47624 | 19.03024 | 2501 ft | 218 kts | 266° |
| 2026-05-04 19:03 | 50.47619 | 19.00596 | 3151 ft | 229 kts | 265° |
| 2026-05-04 19:03 | 50.47628 | 18.98126 | 3964 ft | 231 kts | 271° |
| 2026-05-04 19:03 | 50.48187 | 18.95729 | 4677 ft | 247 kts | 306° |
| 2026-05-04 19:04 | 50.49585 | 18.94167 | 5431 ft | 259 kts | 338° |
| 2026-05-04 19:04 | 50.51359 | 18.93918 | 6201 ft | 266 kts | 9° |
| 2026-05-04 19:04 | 50.53019 | 18.95188 | 6971 ft | 270 kts | 43° |
| 2026-05-04 19:04 | 50.54215 | 18.97451 | 7715 ft | 272 kts | 52° |
| 2026-05-04 19:05 | 50.55604 | 18.99416 | 8376 ft | 276 kts | 24° |
| 2026-05-04 19:05 | 50.57422 | 19.00224 | 9102 ft | 274 kts | 6° |
| 2026-05-04 19:05 | 50.59319 | 19.00624 | 9772 ft | 277 kts | 5° |
| 2026-05-04 19:05 | 50.61227 | 19.01020 | 10393 ft | 283 kts | 5° |
| 2026-05-04 19:06 | 50.63232 | 19.01505 | 10751 ft | 299 kts | 7° |
| 2026-05-04 19:06 | 50.65331 | 19.02082 | 11094 ft | 316 kts | 8° |
| 2026-05-04 19:06 | 50.67542 | 19.02742 | 11440 ft | 332 kts | 8° |
| 2026-05-04 19:06 | 50.69823 | 19.03456 | 11975 ft | 340 kts | 9° |
| 2026-05-04 19:07 | 50.72148 | 19.04200 | 12630 ft | 343 kts | 9° |
| 2026-05-04 19:07 | 50.74490 | 19.04959 | 13264 ft | 347 kts | 9° |
| 2026-05-04 19:07 | 50.76872 | 19.05736 | 13878 ft | 351 kts | 9° |
| 2026-05-04 19:07 | 50.79254 | 19.06513 | 14486 ft | 354 kts | 9° |
| 2026-05-04 19:08 | 50.81662 | 19.07301 | 15117 ft | 356 kts | 9° |
| 2026-05-04 19:08 | 50.84074 | 19.08091 | 15751 ft | 357 kts | 9° |
| 2026-05-04 19:08 | 50.86530 | 19.08897 | 16374 ft | 359 kts | 9° |
| 2026-05-04 19:08 | 50.88961 | 19.09697 | 16966 ft | 361 kts | 9° |
| 2026-05-04 19:09 | 50.91418 | 19.10505 | 17545 ft | 362 kts | 9° |
| 2026-05-04 19:09 | 50.93891 | 19.11319 | 18114 ft | 364 kts | 9° |
| 2026-05-04 19:09 | 50.96387 | 19.11966 | 18644 ft | 364 kts | 359° |
| 2026-05-04 19:09 | 50.98854 | 19.11450 | 19168 ft | 361 kts | 343° |
| 2026-05-04 19:10 | 51.01259 | 19.10420 | 19700 ft | 362 kts | 341° |
| 2026-05-04 19:10 | 51.03685 | 19.09329 | 20199 ft | 364 kts | 342° |
| 2026-05-04 19:10 | 51.06171 | 19.08257 | 20702 ft | 366 kts | 342° |
| 2026-05-04 19:10 | 51.08629 | 19.07245 | 21179 ft | 368 kts | 343° |
| 2026-05-04 19:11 | 51.11196 | 19.06222 | 21652 ft | 371 kts | 343° |
| 2026-05-04 19:11 | 51.13781 | 19.05213 | 22113 ft | 373 kts | 343° |
| 2026-05-04 19:11 | 51.16409 | 19.04201 | 22570 ft | 376 kts | 343° |
| 2026-05-04 19:11 | 51.19004 | 19.03209 | 23009 ft | 378 kts | 343° |
| 2026-05-04 19:12 | 51.21621 | 19.02213 | 23448 ft | 380 kts | 343° |
| 2026-05-04 19:12 | 51.26802 | 19.00244 | 24281 ft | 385 kts | 343° |
| 2026-05-04 19:12 | 51.29573 | 18.99191 | 24732 ft | 386 kts | 343° |
| 2026-05-04 19:13 | 51.32282 | 18.98160 | 25156 ft | 388 kts | 343° |
| 2026-05-04 19:13 | 51.35015 | 18.97120 | 25555 ft | 391 kts | 343° |
| 2026-05-04 19:13 | 51.37727 | 18.96086 | 25943 ft | 393 kts | 344° |
| 2026-05-04 19:13 | 51.40427 | 18.95057 | 26327 ft | 394 kts | 344° |
| 2026-05-04 19:14 | 51.43158 | 18.94015 | 26705 ft | 396 kts | 343° |
| 2026-05-04 19:14 | 51.45764 | 18.93020 | 27057 ft | 398 kts | 343° |
| 2026-05-04 19:14 | 51.48559 | 18.91950 | 27421 ft | 400 kts | 343° |
| 2026-05-04 19:14 | 51.51248 | 18.90919 | 27755 ft | 402 kts | 343° |
| 2026-05-04 19:15 | 51.54027 | 18.89854 | 28105 ft | 403 kts | 343° |
| 2026-05-04 19:15 | 51.56788 | 18.88796 | 28445 ft | 405 kts | 343° |
| 2026-05-04 19:15 | 51.59552 | 18.87733 | 28786 ft | 406 kts | 343° |
| 2026-05-04 19:15 | 51.62305 | 18.86675 | 29199 ft | 406 kts | 343° |
| 2026-05-04 19:16 | 51.65056 | 18.85613 | 29611 ft | 405 kts | 343° |
| 2026-05-04 19:16 | 51.67792 | 18.84557 | 30023 ft | 404 kts | 343° |
| 2026-05-04 19:16 | 51.70508 | 18.83509 | 30435 ft | 404 kts | 343° |
| 2026-05-04 19:16 | 51.73275 | 18.82439 | 30850 ft | 403 kts | 343° |
| 2026-05-04 19:17 | 51.76025 | 18.81376 | 31261 ft | 401 kts | 343° |
| 2026-05-04 19:17 | 51.78749 | 18.80320 | 31672 ft | 400 kts | 343° |
| 2026-05-04 19:17 | 51.81516 | 18.79245 | 32093 ft | 399 kts | 343° |
| 2026-05-04 19:17 | 51.84291 | 18.78166 | 32516 ft | 397 kts | 343° |
| 2026-05-04 19:18 | 51.87089 | 18.77076 | 32946 ft | 395 kts | 342° |
| 2026-05-04 19:18 | 51.89825 | 18.76010 | 33366 ft | 393 kts | 342° |
| 2026-05-04 19:18 | 51.92598 | 18.74929 | 33799 ft | 391 kts | 342° |
| 2026-05-04 19:18 | 51.95084 | 18.73957 | 34192 ft | 388 kts | 342° |
| 2026-05-04 19:19 | 51.97683 | 18.72940 | 34596 ft | 386 kts | 342° |
| 2026-05-04 19:19 | 51.99845 | 18.72094 | 34924 ft | 383 kts | 342° |
| 2026-05-04 19:19 | 52.02699 | 18.70975 | 35233 ft | 382 kts | 342° |
| 2026-05-04 19:20 | 52.07966 | 18.68897 | 35258 ft | 396 kts | 342° |
| 2026-05-04 19:20 | 52.13432 | 18.66739 | 35273 ft | 410 kts | 342° |
| 2026-05-04 19:21 | 52.19057 | 18.64516 | 35281 ft | 422 kts | 342° |
| 2026-05-04 19:21 | 52.24875 | 18.62215 | 35235 ft | 428 kts | 342° |
| 2026-05-04 19:21 | 52.27738 | 18.61081 | 34906 ft | 427 kts | 342° |
| 2026-05-04 19:22 | 52.30643 | 18.59928 | 34244 ft | 429 kts | 342° |
| 2026-05-04 19:22 | 52.33592 | 18.58753 | 33938 ft | 433 kts | 342° |
| 2026-05-04 19:22 | 52.36538 | 18.57582 | 33927 ft | 435 kts | 342° |
| 2026-05-04 19:23 | 52.42449 | 18.55224 | 33928 ft | 436 kts | 342° |
| 2026-05-04 19:23 | 52.48336 | 18.52868 | 33926 ft | 437 kts | 342° |
| 2026-05-04 19:24 | 52.54308 | 18.50472 | 33925 ft | 437 kts | 342° |
| 2026-05-04 19:24 | 52.60328 | 18.48050 | 33920 ft | 437 kts | 342° |
| 2026-05-04 19:25 | 52.66296 | 18.45642 | 33918 ft | 439 kts | 342° |
| 2026-05-04 19:25 | 52.72273 | 18.43222 | 33918 ft | 440 kts | 342° |
| 2026-05-04 19:26 | 52.78238 | 18.40802 | 33920 ft | 440 kts | 342° |
| 2026-05-04 19:26 | 52.84174 | 18.38387 | 33925 ft | 440 kts | 342° |
| 2026-05-04 19:27 | 52.90229 | 18.35914 | 33926 ft | 440 kts | 341° |
| 2026-05-04 19:27 | 52.96198 | 18.33470 | 33928 ft | 439 kts | 341° |
| 2026-05-04 19:28 | 53.02168 | 18.31019 | 33927 ft | 439 kts | 341° |
| 2026-05-04 19:28 | 53.08081 | 18.28588 | 33935 ft | 440 kts | 340° |
| 2026-05-04 19:29 | 53.13997 | 18.26144 | 33934 ft | 439 kts | 340° |
| 2026-05-04 19:29 | 53.19882 | 18.23707 | 33934 ft | 438 kts | 340° |
| 2026-05-04 19:30 | 53.25788 | 18.21253 | 33933 ft | 439 kts | 340° |
| 2026-05-04 19:30 | 53.31694 | 18.18796 | 33931 ft | 439 kts | 340° |
| 2026-05-04 19:31 | 53.37663 | 18.16304 | 33925 ft | 439 kts | 340° |
| 2026-05-04 19:31 | 53.43580 | 18.13823 | 33920 ft | 439 kts | 340° |
| 2026-05-04 19:32 | 53.49484 | 18.11344 | 33924 ft | 438 kts | 340° |
| 2026-05-04 19:32 | 53.55396 | 18.08854 | 33923 ft | 439 kts | 340° |
| 2026-05-04 19:33 | 53.61279 | 18.06369 | 33918 ft | 439 kts | 340° |
| 2026-05-04 19:33 | 53.67237 | 18.03844 | 33919 ft | 439 kts | 339° |
| 2026-05-04 19:34 | 53.73223 | 18.01300 | 33921 ft | 439 kts | 339° |
| 2026-05-04 19:34 | 53.79166 | 17.98768 | 33919 ft | 439 kts | 339° |
| 2026-05-04 19:35 | 53.85107 | 17.96232 | 33924 ft | 440 kts | 339° |
| 2026-05-04 19:35 | 53.91081 | 17.93670 | 33920 ft | 439 kts | 339° |
| 2026-05-04 19:36 | 53.96909 | 17.91165 | 33926 ft | 438 kts | 339° |
| 2026-05-04 19:36 | 54.02764 | 17.88641 | 33915 ft | 438 kts | 339° |
| 2026-05-04 19:37 | 54.08627 | 17.86104 | 33913 ft | 439 kts | 339° |
| 2026-05-04 19:37 | 54.14527 | 17.83544 | 33900 ft | 439 kts | 339° |
| 2026-05-04 19:38 | 54.20414 | 17.80981 | 33908 ft | 439 kts | 339° |
| 2026-05-04 19:38 | 54.26321 | 17.78407 | 33897 ft | 440 kts | 338° |
| 2026-05-04 19:39 | 54.32236 | 17.75818 | 33903 ft | 440 kts | 338° |
| 2026-05-04 19:39 | 54.38125 | 17.73234 | 33892 ft | 440 kts | 338° |
| 2026-05-04 19:40 | 54.44036 | 17.70632 | 33901 ft | 439 kts | 338° |
| 2026-05-04 19:40 | 54.49985 | 17.68006 | 33907 ft | 439 kts | 338° |
| 2026-05-04 19:41 | 54.55902 | 17.65385 | 33895 ft | 440 kts | 338° |
| 2026-05-04 19:41 | 54.61828 | 17.62755 | 33900 ft | 440 kts | 338° |
| 2026-05-04 19:42 | 54.67749 | 17.60120 | 33909 ft | 440 kts | 338° |
| 2026-05-04 19:42 | 54.73693 | 17.57464 | 33895 ft | 440 kts | 338° |
| 2026-05-04 19:43 | 54.79636 | 17.54800 | 33895 ft | 440 kts | 338° |
| 2026-05-04 19:43 | 54.85529 | 17.52151 | 33898 ft | 439 kts | 338° |
| 2026-05-04 19:44 | 54.91447 | 17.49482 | 33893 ft | 440 kts | 338° |
| 2026-05-04 19:44 | 54.97337 | 17.46817 | 33909 ft | 440 kts | 338° |
| 2026-05-04 19:45 | 55.03262 | 17.44125 | 33895 ft | 439 kts | 338° |
| 2026-05-04 19:45 | 55.09223 | 17.41413 | 33906 ft | 439 kts | 338° |
| 2026-05-04 19:46 | 55.15250 | 17.38663 | 33896 ft | 440 kts | 338° |
| 2026-05-04 19:46 | 55.21205 | 17.35938 | 33904 ft | 440 kts | 338° |
| 2026-05-04 19:47 | 55.27182 | 17.33188 | 33895 ft | 439 kts | 338° |
| 2026-05-04 19:47 | 55.33158 | 17.30437 | 33897 ft | 439 kts | 338° |
| 2026-05-04 19:48 | 55.39128 | 17.27679 | 33885 ft | 438 kts | 338° |
| 2026-05-04 19:48 | 55.45054 | 17.24934 | 33885 ft | 438 kts | 339° |
| 2026-05-04 19:49 | 55.50996 | 17.22172 | 33879 ft | 438 kts | 339° |
| 2026-05-04 19:49 | 55.57042 | 17.19395 | 33889 ft | 440 kts | 340° |
| 2026-05-04 19:50 | 55.63011 | 17.17504 | 33879 ft | 445 kts | 347° |
| 2026-05-04 19:50 | 55.69195 | 17.16775 | 33867 ft | 450 kts | 354° |
| 2026-05-04 19:51 | 55.75464 | 17.17139 | 33877 ft | 452 kts | 357° |
| 2026-05-04 19:51 | 55.81692 | 17.17760 | 33863 ft | 452 kts | 358° |
| 2026-05-04 19:52 | 55.87875 | 17.18374 | 33858 ft | 452 kts | 358° |
| 2026-05-04 19:52 | 55.94143 | 17.18984 | 33859 ft | 451 kts | 358° |
| 2026-05-04 19:53 | 56.00464 | 17.19594 | 33855 ft | 451 kts | 358° |
| 2026-05-04 19:53 | 56.06719 | 17.20203 | 33859 ft | 450 kts | 358° |
| 2026-05-04 19:54 | 56.12997 | 17.20811 | 33855 ft | 450 kts | 358° |
| 2026-05-04 19:54 | 56.19254 | 17.21421 | 33852 ft | 450 kts | 358° |
| 2026-05-04 19:55 | 56.25505 | 17.22031 | 33856 ft | 450 kts | 358° |
| 2026-05-04 19:55 | 56.31760 | 17.22642 | 33848 ft | 449 kts | 358° |